sensor_id;sensor_type;location;lat;lon;timestamp;P1;durP1;ratioP1;P2;durP2;ratioP2
7669;SDS011;3877;42.562;27.636;2023-04-15T00:01:28;21.17;;;7.30;;
7669;SDS011;3877;42.562;27.636;2023-04-15T00:03:58;19.23;;;6.50;;
7669;SDS011;3877;42.562;27.636;2023-04-15T00:06:25;17.83;;;6.37;;
7669;SDS011;3877;42.562;27.636;2023-04-15T00:08:52;19.53;;;5.80;;
7669;SDS011;3877;42.562;27.636;2023-04-15T00:11:20;28.05;;;5.93;;
7669;SDS011;3877;42.562;27.636;2023-04-15T00:13:48;14.80;;;5.07;;
7669;SDS011;3877;42.562;27.636;2023-04-15T00:16:15;21.85;;;5.25;;
7669;SDS011;3877;42.562;27.636;2023-04-15T00:18:43;15.48;;;4.93;;
7669;SDS011;3877;42.562;27.636;2023-04-15T00:21:10;15.13;;;5.20;;
7669;SDS011;3877;42.562;27.636;2023-04-15T00:23:37;13.40;;;4.40;;
7669;SDS011;3877;42.562;27.636;2023-04-15T00:26:04;23.30;;;5.38;;
7669;SDS011;3877;42.562;27.636;2023-04-15T00:28:31;18.42;;;5.00;;
7669;SDS011;3877;42.562;27.636;2023-04-15T00:30:58;14.90;;;5.03;;
7669;SDS011;3877;42.562;27.636;2023-04-15T00:33:25;17.42;;;4.97;;
7669;SDS011;3877;42.562;27.636;2023-04-15T00:35:54;19.23;;;5.28;;
7669;SDS011;3877;42.562;27.636;2023-04-15T00:38:20;18.07;;;7.63;;
7669;SDS011;3877;42.562;27.636;2023-04-15T00:40:47;15.63;;;6.37;;
7669;SDS011;3877;42.562;27.636;2023-04-15T00:43:14;19.03;;;6.77;;
7669;SDS011;3877;42.562;27.636;2023-04-15T00:45:41;21.57;;;7.10;;
7669;SDS011;3877;42.562;27.636;2023-04-15T00:48:08;23.87;;;7.37;;
7669;SDS011;3877;42.562;27.636;2023-04-15T00:50:35;22.63;;;6.70;;
7669;SDS011;3877;42.562;27.636;2023-04-15T00:53:03;20.37;;;6.67;;
7669;SDS011;3877;42.562;27.636;2023-04-15T00:55:30;21.63;;;8.17;;
7669;SDS011;3877;42.562;27.636;2023-04-15T00:57:57;22.00;;;6.17;;
7669;SDS011;3877;42.562;27.636;2023-04-15T01:00:24;14.40;;;6.30;;
7669;SDS011;3877;42.562;27.636;2023-04-15T01:02:51;21.40;;;7.17;;
7669;SDS011;3877;42.562;27.636;2023-04-15T01:05:17;15.97;;;6.60;;
7669;SDS011;3877;42.562;27.636;2023-04-15T01:07:45;23.30;;;6.27;;
7669;SDS011;3877;42.562;27.636;2023-04-15T01:10:13;21.00;;;5.67;;
7669;SDS011;3877;42.562;27.636;2023-04-15T01:12:40;16.43;;;6.37;;
7669;SDS011;3877;42.562;27.636;2023-04-15T01:15:07;23.03;;;7.27;;
7669;SDS011;3877;42.562;27.636;2023-04-15T01:17:35;20.13;;;6.10;;
7669;SDS011;3877;42.562;27.636;2023-04-15T01:20:02;19.80;;;6.30;;
7669;SDS011;3877;42.562;27.636;2023-04-15T01:22:29;18.27;;;5.80;;
7669;SDS011;3877;42.562;27.636;2023-04-15T01:24:58;28.27;;;6.03;;
7669;SDS011;3877;42.562;27.636;2023-04-15T01:27:30;20.37;;;6.33;;
7669;SDS011;3877;42.562;27.636;2023-04-15T01:29:57;18.93;;;6.10;;
7669;SDS011;3877;42.562;27.636;2023-04-15T01:32:24;26.87;;;7.37;;
7669;SDS011;3877;42.562;27.636;2023-04-15T01:34:51;17.90;;;6.18;;
7669;SDS011;3877;42.562;27.636;2023-04-15T01:37:18;15.40;;;6.37;;
7669;SDS011;3877;42.562;27.636;2023-04-15T01:39:45;14.03;;;5.50;;
7669;SDS011;3877;42.562;27.636;2023-04-15T01:42:12;16.43;;;5.17;;
7669;SDS011;3877;42.562;27.636;2023-04-15T01:44:40;21.07;;;5.37;;
7669;SDS011;3877;42.562;27.636;2023-04-15T01:47:07;14.60;;;5.30;;
7669;SDS011;3877;42.562;27.636;2023-04-15T01:49:34;14.70;;;5.50;;
7669;SDS011;3877;42.562;27.636;2023-04-15T01:52:01;21.53;;;6.00;;
7669;SDS011;3877;42.562;27.636;2023-04-15T01:54:28;20.13;;;5.90;;
7669;SDS011;3877;42.562;27.636;2023-04-15T01:56:55;15.90;;;5.80;;
7669;SDS011;3877;42.562;27.636;2023-04-15T01:59:22;16.83;;;5.57;;
7669;SDS011;3877;42.562;27.636;2023-04-15T02:01:50;22.90;;;5.90;;
7669;SDS011;3877;42.562;27.636;2023-04-15T02:04:17;18.83;;;6.43;;
7669;SDS011;3877;42.562;27.636;2023-04-15T02:06:44;17.87;;;6.03;;
7669;SDS011;3877;42.562;27.636;2023-04-15T02:09:11;14.17;;;5.60;;
7669;SDS011;3877;42.562;27.636;2023-04-15T02:11:38;17.37;;;5.30;;
7669;SDS011;3877;42.562;27.636;2023-04-15T02:14:05;13.33;;;4.87;;
7669;SDS011;3877;42.562;27.636;2023-04-15T02:16:32;13.37;;;5.30;;
7669;SDS011;3877;42.562;27.636;2023-04-15T02:19:00;12.33;;;5.30;;
7669;SDS011;3877;42.562;27.636;2023-04-15T02:21:27;18.97;;;6.40;;
7669;SDS011;3877;42.562;27.636;2023-04-15T02:23:54;14.05;;;5.25;;
7669;SDS011;3877;42.562;27.636;2023-04-15T02:26:21;17.55;;;5.28;;
7669;SDS011;3877;42.562;27.636;2023-04-15T02:28:49;18.37;;;5.70;;
7669;SDS011;3877;42.562;27.636;2023-04-15T02:31:16;17.00;;;5.18;;
7669;SDS011;3877;42.562;27.636;2023-04-15T02:33:45;17.47;;;5.03;;
7669;SDS011;3877;42.562;27.636;2023-04-15T02:36:14;20.88;;;5.72;;
7669;SDS011;3877;42.562;27.636;2023-04-15T02:38:41;17.30;;;6.25;;
7669;SDS011;3877;42.562;27.636;2023-04-15T02:41:07;14.63;;;5.80;;
7669;SDS011;3877;42.562;27.636;2023-04-15T02:43:34;17.27;;;5.87;;
7669;SDS011;3877;42.562;27.636;2023-04-15T02:46:02;16.53;;;5.43;;
7669;SDS011;3877;42.562;27.636;2023-04-15T02:48:29;18.63;;;5.60;;
7669;SDS011;3877;42.562;27.636;2023-04-15T02:51:09;16.33;;;5.40;;
7669;SDS011;3877;42.562;27.636;2023-04-15T02:53:38;15.85;;;6.07;;
7669;SDS011;3877;42.562;27.636;2023-04-15T02:56:05;18.83;;;6.20;;
7669;SDS011;3877;42.562;27.636;2023-04-15T02:58:33;15.70;;;5.93;;
7669;SDS011;3877;42.562;27.636;2023-04-15T03:01:01;21.43;;;6.27;;
7669;SDS011;3877;42.562;27.636;2023-04-15T03:03:27;17.87;;;6.37;;
7669;SDS011;3877;42.562;27.636;2023-04-15T03:05:54;19.37;;;6.23;;
7669;SDS011;3877;42.562;27.636;2023-04-15T03:08:21;17.77;;;6.90;;
7669;SDS011;3877;42.562;27.636;2023-04-15T03:10:50;16.23;;;6.07;;
7669;SDS011;3877;42.562;27.636;2023-04-15T03:13:17;16.83;;;6.70;;
7669;SDS011;3877;42.562;27.636;2023-04-15T03:15:45;18.57;;;6.50;;
7669;SDS011;3877;42.562;27.636;2023-04-15T03:18:12;22.70;;;6.60;;
7669;SDS011;3877;42.562;27.636;2023-04-15T03:20:39;53.20;;;28.53;;
7669;SDS011;3877;42.562;27.636;2023-04-15T03:23:05;24.97;;;8.80;;
7669;SDS011;3877;42.562;27.636;2023-04-15T03:25:32;22.87;;;6.57;;
7669;SDS011;3877;42.562;27.636;2023-04-15T03:28:01;17.90;;;6.20;;
7669;SDS011;3877;42.562;27.636;2023-04-15T03:30:28;23.43;;;6.70;;
7669;SDS011;3877;42.562;27.636;2023-04-15T03:32:55;17.47;;;6.73;;
7669;SDS011;3877;42.562;27.636;2023-04-15T03:35:21;26.87;;;7.33;;
7669;SDS011;3877;42.562;27.636;2023-04-15T03:37:48;21.67;;;7.27;;
7669;SDS011;3877;42.562;27.636;2023-04-15T03:40:15;22.73;;;7.50;;
7669;SDS011;3877;42.562;27.636;2023-04-15T03:42:42;26.53;;;7.30;;
7669;SDS011;3877;42.562;27.636;2023-04-15T03:45:11;19.17;;;6.80;;
7669;SDS011;3877;42.562;27.636;2023-04-15T03:47:41;24.00;;;7.20;;
7669;SDS011;3877;42.562;27.636;2023-04-15T03:50:08;22.73;;;7.63;;
7669;SDS011;3877;42.562;27.636;2023-04-15T03:52:35;14.90;;;6.83;;
7669;SDS011;3877;42.562;27.636;2023-04-15T03:55:02;17.43;;;7.57;;
7669;SDS011;3877;42.562;27.636;2023-04-15T03:57:30;18.60;;;7.20;;
7669;SDS011;3877;42.562;27.636;2023-04-15T04:00:02;23.83;;;7.30;;
7669;SDS011;3877;42.562;27.636;2023-04-15T04:02:30;16.67;;;6.60;;
7669;SDS011;3877;42.562;27.636;2023-04-15T04:04:57;20.10;;;6.60;;
7669;SDS011;3877;42.562;27.636;2023-04-15T04:07:24;16.27;;;6.73;;
7669;SDS011;3877;42.562;27.636;2023-04-15T04:09:51;19.50;;;6.63;;
7669;SDS011;3877;42.562;27.636;2023-04-15T04:12:18;22.67;;;8.00;;
7669;SDS011;3877;42.562;27.636;2023-04-15T04:14:45;21.00;;;7.27;;
7669;SDS011;3877;42.562;27.636;2023-04-15T04:17:12;18.17;;;6.90;;
7669;SDS011;3877;42.562;27.636;2023-04-15T04:19:40;22.93;;;7.90;;
7669;SDS011;3877;42.562;27.636;2023-04-15T04:22:07;26.10;;;10.20;;
7669;SDS011;3877;42.562;27.636;2023-04-15T04:24:34;25.50;;;8.13;;
7669;SDS011;3877;42.562;27.636;2023-04-15T04:27:01;18.87;;;7.70;;
7669;SDS011;3877;42.562;27.636;2023-04-15T04:29:28;19.20;;;7.43;;
7669;SDS011;3877;42.562;27.636;2023-04-15T04:31:55;20.73;;;7.77;;
7669;SDS011;3877;42.562;27.636;2023-04-15T04:34:21;22.63;;;9.47;;
7669;SDS011;3877;42.562;27.636;2023-04-15T04:36:50;19.77;;;10.40;;
7669;SDS011;3877;42.562;27.636;2023-04-15T04:39:17;19.93;;;10.10;;
7669;SDS011;3877;42.562;27.636;2023-04-15T04:41:43;23.73;;;9.80;;
7669;SDS011;3877;42.562;27.636;2023-04-15T04:44:10;25.93;;;8.30;;
7669;SDS011;3877;42.562;27.636;2023-04-15T04:46:37;16.30;;;6.80;;
7669;SDS011;3877;42.562;27.636;2023-04-15T04:49:04;18.23;;;7.20;;
7669;SDS011;3877;42.562;27.636;2023-04-15T04:51:31;19.87;;;8.07;;
7669;SDS011;3877;42.562;27.636;2023-04-15T04:53:59;19.63;;;12.07;;
7669;SDS011;3877;42.562;27.636;2023-04-15T04:56:26;16.03;;;8.60;;
7669;SDS011;3877;42.562;27.636;2023-04-15T04:58:53;17.67;;;9.13;;
7669;SDS011;3877;42.562;27.636;2023-04-15T05:01:20;17.55;;;8.35;;
7669;SDS011;3877;42.562;27.636;2023-04-15T05:03:47;19.67;;;8.37;;
7669;SDS011;3877;42.562;27.636;2023-04-15T05:06:14;19.10;;;9.90;;
7669;SDS011;3877;42.562;27.636;2023-04-15T05:08:41;27.93;;;9.97;;
7669;SDS011;3877;42.562;27.636;2023-04-15T05:11:09;21.67;;;10.10;;
7669;SDS011;3877;42.562;27.636;2023-04-15T05:13:36;19.10;;;9.50;;
7669;SDS011;3877;42.562;27.636;2023-04-15T05:16:03;15.57;;;8.03;;
7669;SDS011;3877;42.562;27.636;2023-04-15T05:18:30;21.30;;;8.70;;
7669;SDS011;3877;42.562;27.636;2023-04-15T05:20:57;22.77;;;8.70;;
7669;SDS011;3877;42.562;27.636;2023-04-15T05:23:24;15.23;;;8.63;;
7669;SDS011;3877;42.562;27.636;2023-04-15T05:25:51;16.30;;;8.60;;
7669;SDS011;3877;42.562;27.636;2023-04-15T05:28:19;29.23;;;9.00;;
7669;SDS011;3877;42.562;27.636;2023-04-15T05:30:46;15.50;;;7.10;;
7669;SDS011;3877;42.562;27.636;2023-04-15T05:33:12;12.73;;;6.20;;
7669;SDS011;3877;42.562;27.636;2023-04-15T05:35:40;23.73;;;7.17;;
7669;SDS011;3877;42.562;27.636;2023-04-15T05:38:07;23.25;;;8.40;;
7669;SDS011;3877;42.562;27.636;2023-04-15T05:40:33;15.77;;;7.80;;
7669;SDS011;3877;42.562;27.636;2023-04-15T05:43:00;15.60;;;8.37;;
7669;SDS011;3877;42.562;27.636;2023-04-15T05:45:28;18.63;;;7.60;;
7669;SDS011;3877;42.562;27.636;2023-04-15T05:47:55;19.80;;;8.00;;
7669;SDS011;3877;42.562;27.636;2023-04-15T05:50:22;18.17;;;7.70;;
7669;SDS011;3877;42.562;27.636;2023-04-15T05:52:49;18.60;;;7.53;;
7669;SDS011;3877;42.562;27.636;2023-04-15T05:55:16;17.67;;;8.20;;
7669;SDS011;3877;42.562;27.636;2023-04-15T05:57:43;20.27;;;7.73;;
7669;SDS011;3877;42.562;27.636;2023-04-15T06:00:10;15.53;;;7.70;;
7669;SDS011;3877;42.562;27.636;2023-04-15T06:02:38;17.17;;;6.77;;
7669;SDS011;3877;42.562;27.636;2023-04-15T06:05:06;12.80;;;5.68;;
7669;SDS011;3877;42.562;27.636;2023-04-15T06:07:34;14.90;;;6.13;;
7669;SDS011;3877;42.562;27.636;2023-04-15T06:10:01;14.80;;;5.77;;
7669;SDS011;3877;42.562;27.636;2023-04-15T06:12:28;12.43;;;5.97;;
7669;SDS011;3877;42.562;27.636;2023-04-15T06:14:58;12.87;;;5.80;;
7669;SDS011;3877;42.562;27.636;2023-04-15T06:17:25;10.97;;;6.00;;
7669;SDS011;3877;42.562;27.636;2023-04-15T06:19:53;13.70;;;5.23;;
7669;SDS011;3877;42.562;27.636;2023-04-15T06:22:20;13.83;;;6.63;;
7669;SDS011;3877;42.562;27.636;2023-04-15T06:24:47;13.10;;;6.20;;
7669;SDS011;3877;42.562;27.636;2023-04-15T06:27:14;12.67;;;5.83;;
7669;SDS011;3877;42.562;27.636;2023-04-15T06:29:41;15.70;;;10.43;;
7669;SDS011;3877;42.562;27.636;2023-04-15T06:32:08;13.87;;;7.63;;
7669;SDS011;3877;42.562;27.636;2023-04-15T06:34:36;13.37;;;6.33;;
7669;SDS011;3877;42.562;27.636;2023-04-15T06:37:04;9.15;;;5.43;;
7669;SDS011;3877;42.562;27.636;2023-04-15T06:39:31;13.23;;;6.93;;
7669;SDS011;3877;42.562;27.636;2023-04-15T06:41:58;15.70;;;6.27;;
7669;SDS011;3877;42.562;27.636;2023-04-15T06:44:25;9.53;;;5.20;;
7669;SDS011;3877;42.562;27.636;2023-04-15T06:46:52;10.97;;;5.20;;
7669;SDS011;3877;42.562;27.636;2023-04-15T06:49:19;9.35;;;5.18;;
7669;SDS011;3877;42.562;27.636;2023-04-15T06:51:46;11.80;;;6.17;;
7669;SDS011;3877;42.562;27.636;2023-04-15T06:54:14;10.67;;;6.77;;
7669;SDS011;3877;42.562;27.636;2023-04-15T06:56:41;8.13;;;4.40;;
7669;SDS011;3877;42.562;27.636;2023-04-15T06:59:08;9.27;;;4.47;;
7669;SDS011;3877;42.562;27.636;2023-04-15T07:01:35;11.33;;;5.63;;
7669;SDS011;3877;42.562;27.636;2023-04-15T07:04:02;8.03;;;5.37;;
7669;SDS011;3877;42.562;27.636;2023-04-15T07:06:29;7.83;;;5.03;;
7669;SDS011;3877;42.562;27.636;2023-04-15T07:08:57;5.55;;;3.83;;
7669;SDS011;3877;42.562;27.636;2023-04-15T07:11:26;9.97;;;5.60;;
7669;SDS011;3877;42.562;27.636;2023-04-15T07:13:52;8.27;;;3.60;;
7669;SDS011;3877;42.562;27.636;2023-04-15T07:16:19;9.38;;;4.10;;
7669;SDS011;3877;42.562;27.636;2023-04-15T07:18:47;7.03;;;3.72;;
7669;SDS011;3877;42.562;27.636;2023-04-15T07:21:15;9.77;;;3.90;;
7669;SDS011;3877;42.562;27.636;2023-04-15T07:23:42;6.65;;;3.72;;
7669;SDS011;3877;42.562;27.636;2023-04-15T07:26:09;9.87;;;4.70;;
7669;SDS011;3877;42.562;27.636;2023-04-15T07:28:38;11.30;;;5.07;;
7669;SDS011;3877;42.562;27.636;2023-04-15T07:31:05;11.10;;;4.00;;
7669;SDS011;3877;42.562;27.636;2023-04-15T07:33:35;10.17;;;3.90;;
7669;SDS011;3877;42.562;27.636;2023-04-15T07:36:02;9.87;;;3.60;;
7669;SDS011;3877;42.562;27.636;2023-04-15T07:38:29;11.00;;;3.83;;
7669;SDS011;3877;42.562;27.636;2023-04-15T07:40:56;12.70;;;4.13;;
7669;SDS011;3877;42.562;27.636;2023-04-15T07:43:23;9.27;;;3.40;;
7669;SDS011;3877;42.562;27.636;2023-04-15T07:48:36;8.10;;;3.50;;
7669;SDS011;3877;42.562;27.636;2023-04-15T07:51:03;6.00;;;2.83;;
7669;SDS011;3877;42.562;27.636;2023-04-15T07:53:30;7.20;;;3.37;;
7669;SDS011;3877;42.562;27.636;2023-04-15T07:55:58;10.47;;;3.27;;
7669;SDS011;3877;42.562;27.636;2023-04-15T07:58:24;11.50;;;3.87;;
7669;SDS011;3877;42.562;27.636;2023-04-15T08:00:51;10.27;;;4.90;;
7669;SDS011;3877;42.562;27.636;2023-04-15T08:03:20;15.80;;;6.60;;
7669;SDS011;3877;42.562;27.636;2023-04-15T08:05:48;11.57;;;6.93;;
7669;SDS011;3877;42.562;27.636;2023-04-15T08:08:15;17.60;;;8.23;;
7669;SDS011;3877;42.562;27.636;2023-04-15T08:10:42;13.57;;;7.20;;
7669;SDS011;3877;42.562;27.636;2023-04-15T08:13:09;20.00;;;7.80;;
7669;SDS011;3877;42.562;27.636;2023-04-15T08:15:36;14.23;;;6.77;;
7669;SDS011;3877;42.562;27.636;2023-04-15T08:18:03;18.40;;;6.27;;
7669;SDS011;3877;42.562;27.636;2023-04-15T08:20:30;17.37;;;6.73;;
7669;SDS011;3877;42.562;27.636;2023-04-15T08:22:58;12.63;;;6.73;;
7669;SDS011;3877;42.562;27.636;2023-04-15T08:25:25;16.33;;;6.63;;
7669;SDS011;3877;42.562;27.636;2023-04-15T08:27:55;15.57;;;6.37;;
7669;SDS011;3877;42.562;27.636;2023-04-15T08:30:22;14.23;;;5.13;;
7669;SDS011;3877;42.562;27.636;2023-04-15T08:32:49;11.70;;;3.43;;
7669;SDS011;3877;42.562;27.636;2023-04-15T08:35:16;9.20;;;3.33;;
7669;SDS011;3877;42.562;27.636;2023-04-15T08:37:43;9.73;;;3.30;;
7669;SDS011;3877;42.562;27.636;2023-04-15T08:40:12;12.47;;;3.40;;
7669;SDS011;3877;42.562;27.636;2023-04-15T08:42:40;11.85;;;3.50;;
7669;SDS011;3877;42.562;27.636;2023-04-15T08:45:09;7.50;;;3.50;;
7669;SDS011;3877;42.562;27.636;2023-04-15T08:47:36;9.93;;;3.37;;
7669;SDS011;3877;42.562;27.636;2023-04-15T08:50:04;14.50;;;3.83;;
7669;SDS011;3877;42.562;27.636;2023-04-15T08:52:34;9.33;;;3.27;;
7669;SDS011;3877;42.562;27.636;2023-04-15T08:55:01;8.52;;;3.05;;
7669;SDS011;3877;42.562;27.636;2023-04-15T08:57:30;7.70;;;3.17;;
7669;SDS011;3877;42.562;27.636;2023-04-15T08:59:59;10.23;;;3.60;;
7669;SDS011;3877;42.562;27.636;2023-04-15T09:02:28;7.78;;;3.33;;
7669;SDS011;3877;42.562;27.636;2023-04-15T09:04:55;7.93;;;3.07;;
7669;SDS011;3877;42.562;27.636;2023-04-15T09:07:21;8.53;;;3.20;;
7669;SDS011;3877;42.562;27.636;2023-04-15T09:09:48;10.10;;;3.47;;
7669;SDS011;3877;42.562;27.636;2023-04-15T09:12:16;8.27;;;3.20;;
7669;SDS011;3877;42.562;27.636;2023-04-15T09:14:45;8.48;;;3.20;;
7669;SDS011;3877;42.562;27.636;2023-04-15T09:17:14;9.75;;;4.10;;
7669;SDS011;3877;42.562;27.636;2023-04-15T09:19:43;5.90;;;3.25;;
7669;SDS011;3877;42.562;27.636;2023-04-15T09:22:10;11.05;;;4.85;;
7669;SDS011;3877;42.562;27.636;2023-04-15T09:24:38;11.20;;;3.87;;
7669;SDS011;3877;42.562;27.636;2023-04-15T09:27:07;7.03;;;3.80;;
7669;SDS011;3877;42.562;27.636;2023-04-15T09:29:34;7.93;;;3.50;;
7669;SDS011;3877;42.562;27.636;2023-04-15T09:32:12;8.15;;;3.70;;
7669;SDS011;3877;42.562;27.636;2023-04-15T09:34:40;10.88;;;3.50;;
7669;SDS011;3877;42.562;27.636;2023-04-15T09:37:06;8.82;;;3.45;;
7669;SDS011;3877;42.562;27.636;2023-04-15T09:39:44;5.88;;;3.72;;
7669;SDS011;3877;42.562;27.636;2023-04-15T09:42:12;8.95;;;3.47;;
7669;SDS011;3877;42.562;27.636;2023-04-15T09:44:40;5.75;;;2.58;;
7669;SDS011;3877;42.562;27.636;2023-04-15T09:47:07;4.60;;;2.75;;
7669;SDS011;3877;42.562;27.636;2023-04-15T09:49:35;6.63;;;4.72;;
7669;SDS011;3877;42.562;27.636;2023-04-15T09:52:02;6.95;;;3.03;;
7669;SDS011;3877;42.562;27.636;2023-04-15T09:54:33;7.63;;;2.55;;
7669;SDS011;3877;42.562;27.636;2023-04-15T09:57:08;5.90;;;3.13;;
7669;SDS011;3877;42.562;27.636;2023-04-15T09:59:36;6.18;;;2.88;;
7669;SDS011;3877;42.562;27.636;2023-04-15T10:02:03;4.25;;;2.50;;
7669;SDS011;3877;42.562;27.636;2023-04-15T10:04:31;8.93;;;2.97;;
7669;SDS011;3877;42.562;27.636;2023-04-15T10:07:00;4.30;;;2.53;;
7669;SDS011;3877;42.562;27.636;2023-04-15T10:09:28;4.40;;;2.47;;
7669;SDS011;3877;42.562;27.636;2023-04-15T10:11:56;3.00;;;1.90;;
7669;SDS011;3877;42.562;27.636;2023-04-15T10:14:23;4.45;;;2.58;;
7669;SDS011;3877;42.562;27.636;2023-04-15T10:16:51;4.10;;;2.38;;
7669;SDS011;3877;42.562;27.636;2023-04-15T10:19:19;7.28;;;3.00;;
7669;SDS011;3877;42.562;27.636;2023-04-15T10:21:51;5.60;;;2.90;;
7669;SDS011;3877;42.562;27.636;2023-04-15T10:24:21;8.23;;;3.40;;
7669;SDS011;3877;42.562;27.636;2023-04-15T10:26:48;4.63;;;2.17;;
7669;SDS011;3877;42.562;27.636;2023-04-15T10:29:15;3.70;;;2.58;;
7669;SDS011;3877;42.562;27.636;2023-04-15T10:31:42;3.55;;;2.60;;
7669;SDS011;3877;42.562;27.636;2023-04-15T10:34:10;5.78;;;2.90;;
7669;SDS011;3877;42.562;27.636;2023-04-15T10:36:37;8.10;;;2.78;;
7669;SDS011;3877;42.562;27.636;2023-04-15T10:39:06;4.82;;;2.70;;
7669;SDS011;3877;42.562;27.636;2023-04-15T10:42:06;3.92;;;2.50;;
7669;SDS011;3877;42.562;27.636;2023-04-15T10:44:34;6.47;;;2.50;;
7669;SDS011;3877;42.562;27.636;2023-04-15T10:47:03;4.45;;;2.33;;
7669;SDS011;3877;42.562;27.636;2023-04-15T10:49:30;6.75;;;2.33;;
7669;SDS011;3877;42.562;27.636;2023-04-15T10:51:57;7.85;;;2.70;;
7669;SDS011;3877;42.562;27.636;2023-04-15T10:54:29;4.63;;;2.50;;
7669;SDS011;3877;42.562;27.636;2023-04-15T10:57:07;5.15;;;2.72;;
7669;SDS011;3877;42.562;27.636;2023-04-15T10:59:35;4.18;;;2.90;;
7669;SDS011;3877;42.562;27.636;2023-04-15T11:02:02;5.63;;;3.05;;
7669;SDS011;3877;42.562;27.636;2023-04-15T11:07:15;5.22;;;3.17;;
7669;SDS011;3877;42.562;27.636;2023-04-15T11:09:58;6.90;;;3.60;;
7669;SDS011;3877;42.562;27.636;2023-04-15T11:12:33;9.82;;;4.38;;
7669;SDS011;3877;42.562;27.636;2023-04-15T11:17:42;5.40;;;2.80;;
7669;SDS011;3877;42.562;27.636;2023-04-15T11:20:10;6.70;;;2.67;;
7669;SDS011;3877;42.562;27.636;2023-04-15T11:22:45;9.43;;;2.95;;
7669;SDS011;3877;42.562;27.636;2023-04-15T11:25:20;8.18;;;3.00;;
7669;SDS011;3877;42.562;27.636;2023-04-15T11:27:48;4.75;;;2.65;;
7669;SDS011;3877;42.562;27.636;2023-04-15T11:30:19;6.10;;;2.00;;
7669;SDS011;3877;42.562;27.636;2023-04-15T11:32:47;6.63;;;2.40;;
7669;SDS011;3877;42.562;27.636;2023-04-15T11:35:15;5.38;;;2.67;;
7669;SDS011;3877;42.562;27.636;2023-04-15T11:37:42;5.72;;;2.50;;
7669;SDS011;3877;42.562;27.636;2023-04-15T11:40:09;12.00;;;6.68;;
7669;SDS011;3877;42.562;27.636;2023-04-15T11:42:35;5.35;;;2.63;;
7669;SDS011;3877;42.562;27.636;2023-04-15T11:45:07;4.22;;;2.25;;
7669;SDS011;3877;42.562;27.636;2023-04-15T11:47:34;6.20;;;2.35;;
7669;SDS011;3877;42.562;27.636;2023-04-15T11:50:15;4.63;;;2.53;;
7669;SDS011;3877;42.562;27.636;2023-04-15T11:52:51;5.22;;;2.50;;
7669;SDS011;3877;42.562;27.636;2023-04-15T11:55:18;5.68;;;2.78;;
7669;SDS011;3877;42.562;27.636;2023-04-15T11:57:45;4.10;;;2.35;;
7669;SDS011;3877;42.562;27.636;2023-04-15T12:00:13;7.43;;;3.58;;
7669;SDS011;3877;42.562;27.636;2023-04-15T12:02:41;4.47;;;2.70;;
7669;SDS011;3877;42.562;27.636;2023-04-15T12:05:08;7.88;;;2.35;;
7669;SDS011;3877;42.562;27.636;2023-04-15T12:10:18;9.25;;;2.70;;
7669;SDS011;3877;42.562;27.636;2023-04-15T12:12:48;7.63;;;2.70;;
7669;SDS011;3877;42.562;27.636;2023-04-15T12:15:17;3.92;;;2.20;;
7669;SDS011;3877;42.562;27.636;2023-04-15T12:17:47;3.88;;;2.40;;
7669;SDS011;3877;42.562;27.636;2023-04-15T12:20:18;4.20;;;2.35;;
7669;SDS011;3877;42.562;27.636;2023-04-15T12:22:46;6.40;;;2.40;;
7669;SDS011;3877;42.562;27.636;2023-04-15T12:25:13;4.20;;;2.28;;
7669;SDS011;3877;42.562;27.636;2023-04-15T12:27:40;8.10;;;2.78;;
7669;SDS011;3877;42.562;27.636;2023-04-15T12:30:07;9.38;;;2.88;;
7669;SDS011;3877;42.562;27.636;2023-04-15T12:32:36;6.22;;;2.58;;
7669;SDS011;3877;42.562;27.636;2023-04-15T12:35:03;4.28;;;2.35;;
7669;SDS011;3877;42.562;27.636;2023-04-15T12:37:30;6.55;;;2.60;;
7669;SDS011;3877;42.562;27.636;2023-04-15T12:39:57;6.85;;;2.80;;
7669;SDS011;3877;42.562;27.636;2023-04-15T12:42:24;4.70;;;2.45;;
7669;SDS011;3877;42.562;27.636;2023-04-15T12:44:51;5.93;;;2.60;;
7669;SDS011;3877;42.562;27.636;2023-04-15T12:47:18;8.38;;;2.30;;
7669;SDS011;3877;42.562;27.636;2023-04-15T12:49:46;5.82;;;2.08;;
7669;SDS011;3877;42.562;27.636;2023-04-15T12:52:13;3.55;;;2.22;;
7669;SDS011;3877;42.562;27.636;2023-04-15T12:54:40;4.72;;;2.40;;
7669;SDS011;3877;42.562;27.636;2023-04-15T12:57:07;5.13;;;2.10;;
7669;SDS011;3877;42.562;27.636;2023-04-15T12:59:34;5.90;;;2.40;;
7669;SDS011;3877;42.562;27.636;2023-04-15T13:02:02;6.53;;;2.50;;
7669;SDS011;3877;42.562;27.636;2023-04-15T13:04:29;9.93;;;2.45;;
7669;SDS011;3877;42.562;27.636;2023-04-15T13:06:57;3.75;;;2.20;;
7669;SDS011;3877;42.562;27.636;2023-04-15T13:09:24;5.88;;;2.50;;
7669;SDS011;3877;42.562;27.636;2023-04-15T13:11:51;4.03;;;2.20;;
7669;SDS011;3877;42.562;27.636;2023-04-15T13:14:18;5.30;;;2.70;;
7669;SDS011;3877;42.562;27.636;2023-04-15T13:16:45;6.30;;;2.30;;
7669;SDS011;3877;42.562;27.636;2023-04-15T13:19:12;4.85;;;2.25;;
7669;SDS011;3877;42.562;27.636;2023-04-15T13:21:39;4.20;;;2.28;;
7669;SDS011;3877;42.562;27.636;2023-04-15T13:24:08;7.18;;;2.20;;
7669;SDS011;3877;42.562;27.636;2023-04-15T13:26:34;5.40;;;2.10;;
7669;SDS011;3877;42.562;27.636;2023-04-15T13:29:02;6.43;;;2.67;;
7669;SDS011;3877;42.562;27.636;2023-04-15T13:31:28;8.02;;;2.70;;
7669;SDS011;3877;42.562;27.636;2023-04-15T13:33:55;2.70;;;2.30;;
7669;SDS011;3877;42.562;27.636;2023-04-15T13:36:22;6.30;;;3.10;;
7669;SDS011;3877;42.562;27.636;2023-04-15T13:38:50;4.47;;;2.40;;
7669;SDS011;3877;42.562;27.636;2023-04-15T13:41:19;5.28;;;2.80;;
7669;SDS011;3877;42.562;27.636;2023-04-15T13:43:46;4.35;;;2.38;;
7669;SDS011;3877;42.562;27.636;2023-04-15T13:46:13;5.70;;;2.50;;
7669;SDS011;3877;42.562;27.636;2023-04-15T13:48:39;6.28;;;2.60;;
7669;SDS011;3877;42.562;27.636;2023-04-15T13:51:06;4.68;;;2.05;;
7669;SDS011;3877;42.562;27.636;2023-04-15T13:53:33;7.35;;;2.40;;
7669;SDS011;3877;42.562;27.636;2023-04-15T13:56:00;4.63;;;2.50;;
7669;SDS011;3877;42.562;27.636;2023-04-15T13:58:28;6.93;;;2.45;;
7669;SDS011;3877;42.562;27.636;2023-04-15T14:00:56;5.57;;;2.15;;
7669;SDS011;3877;42.562;27.636;2023-04-15T14:03:23;6.63;;;2.58;;
7669;SDS011;3877;42.562;27.636;2023-04-15T14:05:50;5.35;;;2.80;;
7669;SDS011;3877;42.562;27.636;2023-04-15T14:08:20;5.43;;;2.92;;
7669;SDS011;3877;42.562;27.636;2023-04-15T14:10:46;9.27;;;3.53;;
7669;SDS011;3877;42.562;27.636;2023-04-15T14:13:13;8.85;;;2.95;;
7669;SDS011;3877;42.562;27.636;2023-04-15T14:15:42;5.60;;;2.83;;
7669;SDS011;3877;42.562;27.636;2023-04-15T14:18:09;4.20;;;2.47;;
7669;SDS011;3877;42.562;27.636;2023-04-15T14:20:35;7.30;;;2.83;;
7669;SDS011;3877;42.562;27.636;2023-04-15T14:23:02;5.45;;;2.63;;
7669;SDS011;3877;42.562;27.636;2023-04-15T14:25:30;10.68;;;2.85;;
7669;SDS011;3877;42.562;27.636;2023-04-15T14:27:56;6.95;;;2.67;;
7669;SDS011;3877;42.562;27.636;2023-04-15T14:30:23;4.82;;;2.88;;
7669;SDS011;3877;42.562;27.636;2023-04-15T14:32:51;5.50;;;2.70;;
7669;SDS011;3877;42.562;27.636;2023-04-15T14:35:18;5.10;;;2.83;;
7669;SDS011;3877;42.562;27.636;2023-04-15T14:37:45;9.23;;;2.90;;
7669;SDS011;3877;42.562;27.636;2023-04-15T14:40:12;6.37;;;3.00;;
7669;SDS011;3877;42.562;27.636;2023-04-15T14:42:39;8.10;;;2.90;;
7669;SDS011;3877;42.562;27.636;2023-04-15T14:45:07;6.50;;;3.08;;
7669;SDS011;3877;42.562;27.636;2023-04-15T14:47:34;7.22;;;2.75;;
7669;SDS011;3877;42.562;27.636;2023-04-15T14:50:02;5.73;;;2.53;;
7669;SDS011;3877;42.562;27.636;2023-04-15T14:52:30;8.55;;;2.88;;
7669;SDS011;3877;42.562;27.636;2023-04-15T14:54:57;8.97;;;2.87;;
7669;SDS011;3877;42.562;27.636;2023-04-15T14:57:24;6.55;;;2.90;;
7669;SDS011;3877;42.562;27.636;2023-04-15T14:59:51;6.37;;;3.10;;
7669;SDS011;3877;42.562;27.636;2023-04-15T15:02:20;7.85;;;3.10;;
7669;SDS011;3877;42.562;27.636;2023-04-15T15:04:48;10.60;;;3.20;;
7669;SDS011;3877;42.562;27.636;2023-04-15T15:07:16;7.90;;;3.13;;